createdAt,value
2018-11-21T00:00:36.333Z,16.35
2018-11-21T00:01:36.285Z,16.41
2018-11-21T00:02:36.235Z,16.31
2018-11-21T00:03:36.188Z,16.39
2018-11-21T00:04:36.139Z,16.42
2018-11-21T00:05:36.095Z,16.43
2018-11-21T00:06:36.040Z,16.43
2018-11-21T00:07:35.994Z,16.26
2018-11-21T00:08:35.943Z,16.43
2018-11-21T00:09:35.896Z,16.35
2018-11-21T00:10:35.846Z,16.35
2018-11-21T00:11:35.796Z,16.33
2018-11-21T00:12:35.748Z,16.31
2018-11-21T00:13:35.698Z,16.36
2018-11-21T00:14:35.650Z,16.35
2018-11-21T00:15:35.612Z,16.35
2018-11-21T00:16:35.553Z,16.39
2018-11-21T00:17:35.503Z,16.29
2018-11-21T00:18:35.455Z,16.29
2018-11-21T00:19:35.406Z,16.31
2018-11-21T00:20:35.358Z,16.43
2018-11-21T00:21:35.308Z,16.31
2018-11-21T00:22:35.261Z,16.36
2018-11-21T00:23:35.210Z,16.41
2018-11-21T00:24:35.161Z,16.42
2018-11-21T00:25:35.114Z,16.35
2018-11-21T00:26:35.063Z,16.38
2018-11-21T00:27:35.016Z,16.32
2018-11-21T00:28:34.967Z,16.46
2018-11-21T00:29:34.917Z,16.35
2018-11-21T00:30:34.872Z,16.38
2018-11-21T00:31:34.819Z,16.33
2018-11-21T00:32:34.771Z,16.39
2018-11-21T00:33:34.724Z,16.39
2018-11-21T00:34:34.674Z,16.36
2018-11-21T00:35:34.627Z,16.47
2018-11-21T00:36:34.576Z,16.46
2018-11-21T00:37:34.526Z,16.47
2018-11-21T00:38:34.479Z,16.43
2018-11-21T00:39:34.430Z,16.49
2018-11-21T00:40:34.381Z,16.42
2018-11-21T00:41:34.332Z,16.35
2018-11-21T00:42:34.283Z,16.39
2018-11-21T00:43:34.235Z,16.41
2018-11-21T00:44:34.184Z,16.35
2018-11-21T00:45:34.136Z,16.46
2018-11-21T00:46:34.093Z,16.49
2018-11-21T00:47:34.038Z,16.54
2018-11-21T00:48:33.991Z,16.43
2018-11-21T00:49:33.940Z,16.39
2018-11-21T00:50:33.893Z,16.49
2018-11-21T00:51:33.844Z,16.46
2018-11-21T00:52:33.794Z,16.51
2018-11-21T00:53:33.745Z,16.49
2018-11-21T00:54:33.706Z,16.50
2018-11-21T00:55:33.648Z,16.42
2018-11-21T00:56:33.599Z,16.42
2018-11-21T00:57:33.552Z,16.56
2018-11-21T00:58:33.505Z,16.64
2018-11-21T00:59:33.452Z,16.57
2018-11-21T01:00:33.405Z,16.56
2018-11-21T01:01:33.357Z,16.58
2018-11-21T01:02:33.307Z,16.51
2018-11-21T01:03:33.259Z,16.64
2018-11-21T01:04:33.216Z,16.57
2018-11-21T01:05:33.161Z,16.51
2018-11-21T01:06:33.113Z,16.56
2018-11-21T01:07:33.064Z,16.68
2018-11-21T01:08:33.015Z,16.54
2018-11-21T01:09:32.968Z,16.57
2018-11-21T01:10:32.920Z,16.47
2018-11-21T01:11:32.869Z,16.60
2018-11-21T01:12:32.820Z,16.64
2018-11-21T01:13:32.772Z,16.58
2018-11-21T01:14:32.723Z,16.60
2018-11-21T01:15:32.676Z,16.64
2018-11-21T01:16:32.628Z,16.64
2018-11-21T01:17:32.582Z,16.60
2018-11-21T01:18:32.528Z,16.65
2018-11-21T01:19:32.479Z,16.68
2018-11-21T01:20:32.431Z,16.68
2018-11-21T01:21:32.382Z,16.61
2018-11-21T01:22:32.332Z,16.68
2018-11-21T01:23:32.287Z,16.68
2018-11-21T01:24:32.236Z,16.66
2018-11-21T01:25:32.186Z,16.76
2018-11-21T01:26:32.143Z,16.74
2018-11-21T01:27:32.090Z,16.78
2018-11-21T01:28:32.041Z,16.76
2018-11-21T01:29:31.993Z,16.81
2018-11-21T01:30:31.943Z,16.75
2018-11-21T01:31:31.895Z,16.76
2018-11-21T01:32:31.848Z,16.71
2018-11-21T01:33:31.799Z,16.76
2018-11-21T01:34:31.749Z,16.75
2018-11-21T01:35:31.701Z,16.69
2018-11-21T01:36:31.652Z,16.71
2018-11-21T01:37:31.603Z,16.76
2018-11-21T01:38:31.559Z,16.74
2018-11-21T01:39:31.511Z,16.72
2018-11-21T01:40:31.459Z,16.68
2018-11-21T01:41:31.410Z,16.69
2018-11-21T01:42:31.362Z,16.71
2018-11-21T01:43:31.312Z,16.65
2018-11-21T01:44:31.263Z,16.72
2018-11-21T01:45:31.216Z,16.76
2018-11-21T01:46:31.169Z,16.66
2018-11-21T01:47:31.118Z,16.72
2018-11-21T01:48:31.070Z,16.71
2018-11-21T01:49:31.022Z,16.71
2018-11-21T01:50:30.973Z,16.72
2018-11-21T01:51:30.925Z,16.71
2018-11-21T01:52:30.875Z,16.74
2018-11-21T01:53:30.826Z,16.72
2018-11-21T01:54:30.778Z,16.75
2018-11-21T01:55:30.732Z,16.81
2018-11-21T01:56:30.682Z,16.83
2018-11-21T01:57:30.632Z,16.79
2018-11-21T01:58:30.584Z,16.83
2018-11-21T01:59:30.536Z,16.81
2018-11-21T02:00:30.492Z,16.89
2018-11-21T02:01:30.438Z,16.76
2018-11-21T02:02:30.391Z,16.76
2018-11-21T02:03:30.342Z,16.74
2018-11-21T02:04:30.294Z,16.78
2018-11-21T02:05:30.245Z,16.83
2018-11-21T02:06:30.196Z,16.86
2018-11-21T02:07:30.147Z,16.76
2018-11-21T02:08:30.100Z,16.79
2018-11-21T02:09:30.052Z,16.81
2018-11-21T02:10:30.007Z,16.86
2018-11-21T02:11:29.955Z,16.87
2018-11-21T02:12:29.905Z,16.91
2018-11-21T02:13:29.858Z,16.83
2018-11-21T02:14:29.810Z,16.84
2018-11-21T02:15:29.762Z,16.87
2018-11-21T02:16:29.712Z,16.83
2018-11-21T02:17:29.664Z,16.72
2018-11-21T02:18:29.616Z,16.78
2018-11-21T02:19:29.567Z,16.78
2018-11-21T02:20:29.518Z,16.72
2018-11-21T02:21:29.469Z,16.83
2018-11-21T02:22:29.420Z,16.75
2018-11-21T02:23:29.372Z,16.76
2018-11-21T02:24:29.325Z,16.79
2018-11-21T02:25:29.276Z,16.75
2018-11-21T02:26:29.230Z,16.78
2018-11-21T02:27:29.179Z,16.72
2018-11-21T02:28:29.130Z,16.71
2018-11-21T02:29:29.082Z,16.74
2018-11-21T02:30:29.035Z,16.72
2018-11-21T02:31:28.985Z,16.71
2018-11-21T02:32:28.938Z,16.64
2018-11-21T02:33:28.888Z,16.66
2018-11-21T02:34:28.840Z,16.64
2018-11-21T02:35:28.791Z,16.56
2018-11-21T02:36:28.747Z,16.64
2018-11-21T02:37:28.693Z,16.56
2018-11-21T02:38:28.646Z,16.69
2018-11-21T02:39:28.598Z,16.58
2018-11-21T02:40:28.549Z,16.57
2018-11-21T02:41:28.501Z,16.65
2018-11-21T02:42:28.452Z,16.61
2018-11-21T02:43:28.402Z,16.66
2018-11-21T02:44:28.355Z,16.58
2018-11-21T02:45:28.305Z,16.61
2018-11-21T02:46:28.258Z,16.69
2018-11-21T02:47:28.210Z,16.60
2018-11-21T02:48:28.170Z,16.64
2018-11-21T02:49:28.111Z,16.68
2018-11-21T02:50:28.062Z,16.66
2018-11-21T02:51:28.025Z,16.60
2018-11-21T02:52:27.965Z,16.56
2018-11-21T02:53:27.916Z,16.60
2018-11-21T02:54:27.868Z,16.58
2018-11-21T02:55:27.820Z,16.58
2018-11-21T02:56:27.770Z,16.65
2018-11-21T02:57:27.723Z,16.61
2018-11-21T02:58:27.674Z,16.72
2018-11-21T02:59:27.625Z,16.78
2018-11-21T03:00:27.579Z,16.76
2018-11-21T03:01:27.529Z,16.68
2018-11-21T03:02:27.481Z,16.76
2018-11-21T03:03:27.432Z,16.74
2018-11-21T03:04:27.382Z,16.74
2018-11-21T03:05:27.546Z,16.68
2018-11-21T03:06:27.287Z,16.71
2018-11-21T03:07:27.237Z,16.71
2018-11-21T03:08:27.189Z,16.61
2018-11-21T03:09:27.140Z,16.66
2018-11-21T03:10:30.598Z,16.66
2018-11-21T03:11:27.042Z,16.65
2018-11-21T03:12:26.995Z,16.65
2018-11-21T03:13:28.471Z,16.69
2018-11-21T03:14:26.899Z,16.64
2018-11-21T03:15:26.849Z,16.64
2018-11-21T03:16:27.003Z,16.65
2018-11-21T03:17:26.753Z,16.66
2018-11-21T03:18:26.703Z,16.66
2018-11-21T03:19:26.656Z,16.54
2018-11-21T03:20:26.607Z,16.60
2018-11-21T03:21:26.559Z,16.57
2018-11-21T03:22:26.719Z,16.50
2018-11-21T03:23:26.462Z,16.53
2018-11-21T03:24:26.412Z,16.53
2018-11-21T03:25:26.369Z,16.47
2018-11-21T03:26:26.316Z,16.47
2018-11-21T03:27:26.267Z,16.42
2018-11-21T03:28:26.418Z,16.47
2018-11-21T03:29:26.170Z,16.43
2018-11-21T03:30:26.122Z,16.50
2018-11-21T03:31:26.073Z,16.51
2018-11-21T03:32:26.025Z,16.53
2018-11-21T03:33:25.976Z,16.53
2018-11-21T03:34:25.927Z,16.47
2018-11-21T03:35:25.879Z,16.53
2018-11-21T03:36:25.830Z,16.49
2018-11-21T03:37:25.781Z,16.50
2018-11-21T03:38:25.734Z,16.51
2018-11-21T03:39:25.686Z,16.51
2018-11-21T03:40:25.634Z,16.54
2018-11-21T03:41:25.587Z,16.58
2018-11-21T03:42:25.540Z,16.51
2018-11-21T03:43:25.490Z,16.56
2018-11-21T03:44:25.446Z,16.61
2018-11-21T03:45:25.393Z,16.56
2018-11-21T03:46:25.344Z,16.56
2018-11-21T03:47:25.296Z,16.57
2018-11-21T03:48:25.247Z,16.51
2018-11-21T03:49:25.201Z,16.60
2018-11-21T03:50:25.153Z,16.60
2018-11-21T03:51:25.101Z,16.57
2018-11-21T03:52:25.053Z,16.64
2018-11-21T03:53:25.002Z,16.58
2018-11-21T03:54:24.954Z,16.58
2018-11-21T03:55:24.906Z,16.51
2018-11-21T03:56:24.872Z,16.65
2018-11-21T03:57:24.809Z,16.57
2018-11-21T03:58:24.760Z,16.56
2018-11-21T03:59:24.712Z,16.66
2018-11-21T04:00:24.664Z,16.64
2018-11-21T04:01:24.615Z,16.57
2018-11-21T04:02:24.566Z,16.66
2018-11-21T04:03:24.518Z,16.56
2018-11-21T04:04:24.471Z,16.58
2018-11-21T04:05:24.423Z,16.64
2018-11-21T04:06:24.372Z,16.57
2018-11-21T04:07:24.323Z,16.50
2018-11-21T04:08:24.275Z,16.54
2018-11-21T04:09:24.227Z,16.60
2018-11-21T04:10:24.181Z,16.50
2018-11-21T04:11:24.129Z,16.43
2018-11-21T04:12:24.080Z,16.53
2018-11-21T04:13:24.032Z,16.57
2018-11-21T04:14:23.984Z,16.46
2018-11-21T04:15:23.935Z,16.53
2018-11-21T04:16:23.885Z,16.43
2018-11-21T04:17:23.839Z,16.54
2018-11-21T04:18:23.791Z,16.47
2018-11-21T04:19:23.741Z,16.49
2018-11-21T04:20:23.692Z,16.42
2018-11-21T04:21:23.645Z,16.49
2018-11-21T04:22:23.594Z,16.47
2018-11-21T04:23:23.545Z,16.50
2018-11-21T04:24:23.498Z,16.50
2018-11-21T04:25:23.449Z,16.49
2018-11-21T04:26:23.401Z,16.51
2018-11-21T04:27:23.351Z,16.49
2018-11-21T04:28:23.302Z,16.41
2018-11-21T04:29:23.260Z,16.46
2018-11-21T04:30:23.206Z,16.47
2018-11-21T04:31:23.158Z,16.46
2018-11-21T04:32:23.108Z,16.46
2018-11-21T04:33:23.072Z,16.42
2018-11-21T04:34:23.011Z,16.43
2018-11-21T04:35:22.963Z,16.50
2018-11-21T04:36:22.913Z,16.43
2018-11-21T04:37:22.866Z,16.36
2018-11-21T04:38:22.815Z,16.36
2018-11-21T04:39:22.767Z,16.42
2018-11-21T04:40:22.721Z,16.46
2018-11-21T04:41:22.671Z,16.46
2018-11-21T04:42:22.624Z,16.38
2018-11-21T04:43:22.574Z,16.49
2018-11-21T04:44:22.526Z,16.51
2018-11-21T04:45:22.476Z,16.49
2018-11-21T04:46:22.428Z,16.43
2018-11-21T04:47:22.379Z,16.42
2018-11-21T04:48:22.331Z,16.47
2018-11-21T04:49:22.281Z,16.38
2018-11-21T04:50:22.233Z,16.43
2018-11-21T04:51:22.185Z,16.47
2018-11-21T04:52:22.135Z,16.43
2018-11-21T04:53:22.087Z,16.50
2018-11-21T04:54:22.046Z,16.50
2018-11-21T04:55:21.989Z,16.47
2018-11-21T04:56:21.942Z,16.47
2018-11-21T04:57:21.898Z,16.47
2018-11-21T04:58:21.844Z,16.49
2018-11-21T04:59:21.795Z,16.47
2018-11-21T05:00:21.746Z,16.51
2018-11-21T05:01:21.697Z,16.32
2018-11-21T05:02:21.653Z,16.35
2018-11-21T05:03:21.601Z,16.42
2018-11-21T05:04:21.553Z,16.42
2018-11-21T05:05:21.504Z,16.42
2018-11-21T05:06:21.465Z,16.41
2018-11-21T05:07:21.407Z,16.42
2018-11-21T05:08:21.358Z,16.42
2018-11-21T05:09:21.309Z,16.41
2018-11-21T05:10:21.262Z,16.49
2018-11-21T05:11:21.216Z,16.56
2018-11-21T05:12:21.164Z,16.64
2018-11-21T05:13:21.122Z,16.57
2018-11-21T05:14:21.067Z,16.49
2018-11-21T05:15:21.017Z,16.56
2018-11-21T05:16:20.969Z,16.54
2018-11-21T05:17:20.921Z,16.66
2018-11-21T05:18:20.875Z,16.57
2018-11-21T05:19:20.826Z,16.54
2018-11-21T05:20:20.775Z,16.61
2018-11-21T05:21:20.727Z,16.57
2018-11-21T05:22:20.678Z,16.56
2018-11-21T05:23:20.629Z,16.60
2018-11-21T05:24:20.588Z,16.51
2018-11-21T05:25:20.533Z,16.50
2018-11-21T05:26:20.483Z,16.41
2018-11-21T05:27:20.437Z,16.54
2018-11-21T05:28:20.388Z,16.42
2018-11-21T05:29:20.339Z,16.50
2018-11-21T05:30:20.290Z,16.49
2018-11-21T05:31:20.241Z,16.50
2018-11-21T05:32:20.193Z,16.50
2018-11-21T05:33:20.147Z,16.49
2018-11-21T05:34:20.095Z,16.50
2018-11-21T05:35:20.047Z,16.43
2018-11-21T05:36:19.998Z,16.43
2018-11-21T05:37:19.949Z,16.41
2018-11-21T05:38:19.901Z,16.35
2018-11-21T05:39:19.851Z,16.41
2018-11-21T05:40:19.803Z,16.28
2018-11-21T05:41:19.755Z,16.41
2018-11-21T05:42:19.706Z,16.41
2018-11-21T05:43:19.657Z,16.42
2018-11-21T05:44:19.609Z,16.41
2018-11-21T05:45:19.560Z,16.42
2018-11-21T05:46:19.512Z,16.46
2018-11-21T05:47:19.463Z,16.41
2018-11-21T05:48:19.414Z,16.42
2018-11-21T05:49:19.366Z,16.49
2018-11-21T05:50:19.317Z,16.43
2018-11-21T05:51:19.268Z,16.43
2018-11-21T05:52:19.219Z,16.50
2018-11-21T05:53:19.171Z,16.50
2018-11-21T05:54:19.122Z,16.49
2018-11-21T05:55:19.074Z,16.43
2018-11-21T05:56:19.025Z,16.43
2018-11-21T05:57:18.977Z,16.46
2018-11-21T05:58:18.928Z,16.49
2018-11-21T05:59:18.880Z,16.49
2018-11-21T06:00:18.834Z,16.47
2018-11-21T06:01:18.782Z,16.51
2018-11-21T06:02:18.734Z,16.46
2018-11-21T06:03:18.685Z,16.46
2018-11-21T06:04:18.650Z,16.46
2018-11-21T06:05:18.588Z,16.38
2018-11-21T06:06:18.538Z,16.38
2018-11-21T06:07:18.492Z,16.41
2018-11-21T06:08:18.440Z,16.32
2018-11-21T06:09:18.392Z,16.36
2018-11-21T06:10:18.343Z,16.36
2018-11-21T06:11:18.296Z,16.32
2018-11-21T06:12:18.246Z,16.38
2018-11-21T06:13:18.198Z,16.29
2018-11-21T06:14:18.149Z,16.24
2018-11-21T06:15:18.099Z,16.24
2018-11-21T06:16:18.051Z,16.31
2018-11-21T06:17:18.002Z,16.32
2018-11-21T06:18:17.954Z,16.29
2018-11-21T06:19:17.906Z,16.32
2018-11-21T06:20:17.857Z,16.36
2018-11-21T06:21:17.807Z,16.29
2018-11-21T06:22:17.758Z,16.39
2018-11-21T06:23:17.709Z,16.33
2018-11-21T06:24:17.661Z,16.32
2018-11-21T06:25:17.611Z,16.38
2018-11-21T06:26:17.562Z,16.41
2018-11-21T06:27:17.516Z,16.43
2018-11-21T06:28:17.468Z,16.42
2018-11-21T06:29:17.417Z,16.42
2018-11-21T06:30:17.369Z,16.42
2018-11-21T06:31:17.319Z,16.33
2018-11-21T06:32:17.271Z,16.41
2018-11-21T06:33:17.222Z,16.41
2018-11-21T06:34:17.177Z,16.41
2018-11-21T06:35:17.125Z,16.33
2018-11-21T06:36:17.076Z,16.42
2018-11-21T06:37:17.028Z,16.47
2018-11-21T06:38:16.980Z,16.41
2018-11-21T06:39:16.929Z,16.38
2018-11-21T06:40:16.883Z,16.32
2018-11-21T06:41:16.832Z,16.33
2018-11-21T06:42:16.784Z,16.49
2018-11-21T06:43:16.734Z,16.31
2018-11-21T06:44:16.694Z,16.35
2018-11-21T06:45:16.637Z,16.35
2018-11-21T06:46:16.588Z,16.36
2018-11-21T06:47:16.539Z,16.31
2018-11-21T06:48:16.490Z,16.35
2018-11-21T06:49:16.441Z,16.36
2018-11-21T06:50:16.394Z,16.35
2018-11-21T06:51:16.347Z,16.35
2018-11-21T06:52:22.102Z,16.47
2018-11-21T06:53:16.246Z,16.36
2018-11-21T06:54:16.199Z,16.38
2018-11-21T06:55:16.149Z,16.31
2018-11-21T06:56:16.100Z,16.32
2018-11-21T06:57:16.056Z,16.32
2018-11-21T06:58:16.015Z,16.39
2018-11-21T06:59:15.954Z,16.42
2018-11-21T07:00:15.911Z,16.33
2018-11-21T07:01:15.859Z,16.35
2018-11-21T07:02:15.809Z,16.32
2018-11-21T07:03:15.759Z,16.32
2018-11-21T07:04:15.715Z,16.29
2018-11-21T07:05:15.663Z,16.33
2018-11-21T07:06:15.613Z,16.41
2018-11-21T07:07:15.569Z,16.29
2018-11-21T07:08:15.517Z,16.43
2018-11-21T07:09:15.468Z,16.49
2018-11-21T07:10:15.418Z,16.33
2018-11-21T07:11:15.369Z,16.39
2018-11-21T07:12:15.324Z,16.36
2018-11-21T07:13:15.273Z,16.39
2018-11-21T07:14:15.224Z,16.32
2018-11-21T07:15:15.174Z,16.35
2018-11-21T07:16:15.127Z,16.46
2018-11-21T07:17:15.077Z,16.29
2018-11-21T07:18:15.582Z,16.46
2018-11-21T07:19:14.980Z,16.46
2018-11-21T07:20:14.931Z,16.50
2018-11-21T07:21:14.897Z,16.49
2018-11-21T07:22:14.834Z,16.43
2018-11-21T07:23:14.786Z,16.43
2018-11-21T07:24:14.736Z,16.53
2018-11-21T07:25:14.689Z,16.65
2018-11-21T07:26:14.639Z,16.56
2018-11-21T07:27:14.591Z,16.58
2018-11-21T07:28:14.543Z,16.51
2018-11-21T07:29:14.500Z,16.56
2018-11-21T07:30:14.445Z,16.53
2018-11-21T07:31:14.395Z,16.47
2018-11-21T07:32:14.348Z,16.47
2018-11-21T07:33:14.300Z,16.50
2018-11-21T07:34:14.250Z,16.47
2018-11-21T07:35:17.734Z,16.53
2018-11-21T07:36:14.153Z,16.47
2018-11-21T07:37:14.106Z,16.56
2018-11-21T07:38:14.055Z,16.58
2018-11-21T07:39:14.007Z,16.57
2018-11-21T07:40:13.958Z,16.61
2018-11-21T07:41:13.909Z,16.66
2018-11-21T07:42:13.864Z,16.66
2018-11-21T07:43:13.814Z,16.60
2018-11-21T07:44:13.763Z,16.61
2018-11-21T07:45:13.721Z,16.58
2018-11-21T07:46:13.672Z,16.54
2018-11-21T07:47:13.618Z,16.64
2018-11-21T07:48:20.177Z,16.54
2018-11-21T07:49:13.521Z,16.60
2018-11-21T07:50:13.472Z,16.58
2018-11-21T07:51:13.424Z,16.64
2018-11-21T07:52:13.375Z,16.60
2018-11-21T07:53:13.331Z,16.61
2018-11-21T07:54:13.278Z,16.61
2018-11-21T07:55:13.230Z,16.64
2018-11-21T07:56:13.182Z,16.60
2018-11-21T07:57:13.137Z,16.65
2018-11-21T07:58:13.084Z,16.60
2018-11-21T07:59:13.035Z,16.58
2018-11-21T08:00:12.987Z,16.69
2018-11-21T08:01:12.938Z,16.58
2018-11-21T08:02:12.891Z,16.54
2018-11-21T08:03:12.841Z,16.61
2018-11-21T08:04:12.793Z,16.54
2018-11-21T08:05:12.745Z,16.58
2018-11-21T08:06:12.695Z,16.51
2018-11-21T08:07:12.647Z,16.64
2018-11-21T08:08:12.599Z,16.49
2018-11-21T08:09:12.549Z,16.66
2018-11-21T08:10:12.501Z,16.50
2018-11-21T08:11:12.452Z,16.51
2018-11-21T08:12:12.404Z,16.61
2018-11-21T08:13:12.357Z,16.53
2018-11-21T08:14:12.316Z,16.57
2018-11-21T08:15:18.968Z,16.56
2018-11-21T08:16:12.218Z,16.53
2018-11-21T08:17:12.162Z,16.51
2018-11-21T08:18:12.112Z,16.53
2018-11-21T08:19:12.063Z,16.49
2018-11-21T08:20:12.015Z,16.46
2018-11-21T08:21:11.968Z,16.57
2018-11-21T08:22:11.918Z,16.51
2018-11-21T08:23:11.869Z,16.47
2018-11-21T08:24:11.821Z,16.56
2018-11-21T08:25:11.779Z,16.64
2018-11-21T08:26:11.724Z,16.56
2018-11-21T08:27:11.675Z,16.61
2018-11-21T08:28:11.627Z,16.56
2018-11-21T08:29:11.579Z,16.71
2018-11-21T08:30:11.530Z,16.68
2018-11-21T08:31:11.482Z,16.68
2018-11-21T08:32:11.431Z,16.65
2018-11-21T08:33:11.384Z,16.69
2018-11-21T08:34:11.335Z,16.74
2018-11-21T08:35:11.288Z,16.68
2018-11-21T08:36:11.237Z,16.61
2018-11-21T08:37:11.189Z,16.65
2018-11-21T08:38:11.142Z,16.65
2018-11-21T08:39:11.092Z,16.69
2018-11-21T08:40:11.044Z,16.57
2018-11-21T08:41:10.995Z,16.61
2018-11-21T08:42:10.945Z,16.65
2018-11-21T08:43:10.897Z,16.69
2018-11-21T08:44:10.849Z,16.71
2018-11-21T08:45:10.803Z,16.76
2018-11-21T08:46:10.752Z,16.74
2018-11-21T08:47:10.704Z,16.69
2018-11-21T08:48:10.656Z,16.76
2018-11-21T08:49:10.607Z,16.72
2018-11-21T08:50:10.561Z,16.75
2018-11-21T08:51:10.509Z,16.76
2018-11-21T08:52:10.460Z,16.74
2018-11-21T08:53:10.412Z,16.76
2018-11-21T08:54:10.365Z,16.76
2018-11-21T08:55:10.315Z,16.76
2018-11-21T08:56:10.299Z,16.81
2018-11-21T08:57:10.221Z,16.74
2018-11-21T08:58:10.171Z,16.78
2018-11-21T08:59:10.123Z,16.79
2018-11-21T09:00:10.073Z,16.74
2018-11-21T09:01:10.023Z,16.72
2018-11-21T09:02:09.982Z,16.78
2018-11-21T09:03:09.936Z,16.83
2018-11-21T09:04:09.877Z,16.83
2018-11-21T09:05:09.829Z,16.81
2018-11-21T09:06:09.806Z,16.87
2018-11-21T09:07:09.741Z,16.74
2018-11-21T09:08:09.725Z,16.90
2018-11-21T09:09:09.671Z,16.94
2018-11-21T09:10:09.589Z,16.91
2018-11-21T09:11:09.538Z,16.93
2018-11-21T09:12:09.510Z,16.91
2018-11-21T09:13:09.455Z,16.94
2018-11-21T09:14:09.431Z,16.93
2018-11-21T09:15:09.345Z,16.97
2018-11-21T09:16:09.297Z,17.01
2018-11-21T09:17:09.255Z,17.05
2018-11-21T09:18:09.198Z,17.08
2018-11-21T09:19:09.155Z,17.04
2018-11-21T09:20:09.101Z,17.09
2018-11-21T09:21:09.056Z,17.09
2018-11-21T09:22:09.020Z,17.15
2018-11-21T09:23:08.956Z,17.27
2018-11-21T09:24:08.907Z,17.24
2018-11-21T09:25:08.859Z,17.34
2018-11-21T09:26:08.811Z,17.31
2018-11-21T09:27:08.765Z,17.38
2018-11-21T09:28:08.714Z,17.44
2018-11-21T09:29:08.668Z,17.36
2018-11-21T09:30:08.621Z,17.36
2018-11-21T09:31:08.569Z,17.44
2018-11-21T09:32:08.522Z,17.48
2018-11-21T09:33:08.478Z,17.56
2018-11-21T09:34:08.435Z,17.54
2018-11-21T09:35:08.376Z,17.72
2018-11-21T09:36:08.328Z,17.74
2018-11-21T09:37:08.280Z,17.80
2018-11-21T09:38:08.231Z,17.85
2018-11-21T09:39:08.182Z,17.87
2018-11-21T09:40:08.141Z,17.86
2018-11-21T09:41:08.089Z,17.90
2018-11-21T09:42:08.038Z,17.94
2018-11-21T09:43:08.001Z,17.92
2018-11-21T09:44:07.952Z,17.95
2018-11-21T09:45:07.909Z,18.01
2018-11-21T09:46:07.852Z,18.00
2018-11-21T09:47:07.798Z,17.98
2018-11-21T09:48:07.751Z,18.03
2018-11-21T09:49:07.703Z,18.00
2018-11-21T09:50:07.654Z,18.01
2018-11-21T09:51:07.636Z,17.94
2018-11-21T09:52:07.560Z,17.90
2018-11-21T09:53:07.509Z,17.90
2018-11-21T09:54:07.461Z,17.98
2018-11-21T09:55:07.414Z,17.90
2018-11-21T09:56:07.367Z,18.07
2018-11-21T09:57:07.318Z,17.92
2018-11-21T09:58:07.277Z,18.04
2018-11-21T09:59:07.223Z,18.08
2018-11-21T10:00:07.175Z,17.95
2018-11-21T10:01:07.129Z,17.97
2018-11-21T10:02:07.078Z,17.89
2018-11-21T10:03:07.037Z,17.87
2018-11-21T10:04:06.982Z,17.95
2018-11-21T10:05:06.935Z,18.00
2018-11-21T10:06:07.088Z,17.98
2018-11-21T10:07:06.838Z,17.94
2018-11-21T10:08:06.793Z,17.94
2018-11-21T10:09:06.745Z,17.95
2018-11-21T10:10:06.697Z,17.90
2018-11-21T10:11:06.649Z,18.03
2018-11-21T10:12:06.600Z,18.03
2018-11-21T10:13:06.555Z,18.03
2018-11-21T10:14:06.502Z,18.05
2018-11-21T10:15:06.455Z,18.13
2018-11-21T10:16:06.407Z,18.05
2018-11-21T10:17:06.359Z,18.07
2018-11-21T10:18:06.313Z,18.16
2018-11-21T10:19:06.265Z,18.04
2018-11-21T10:20:06.217Z,18.16
2018-11-21T10:21:06.170Z,18.19
2018-11-21T10:22:06.119Z,18.20
2018-11-21T10:23:06.072Z,18.18
2018-11-21T10:24:06.027Z,18.15
2018-11-21T10:25:05.976Z,18.20
2018-11-21T10:26:05.928Z,18.16
2018-11-21T10:27:05.883Z,18.26
2018-11-21T10:28:05.833Z,18.13
2018-11-21T10:29:05.786Z,18.19
2018-11-21T10:30:05.737Z,18.23
2018-11-21T10:31:05.688Z,18.25
2018-11-21T10:32:05.642Z,18.33
2018-11-21T10:33:05.594Z,18.40
2018-11-21T10:34:05.576Z,18.40
2018-11-21T10:35:05.499Z,18.45
2018-11-21T10:36:05.456Z,18.41
2018-11-21T10:37:05.405Z,18.43
2018-11-21T10:38:05.356Z,18.44
2018-11-21T10:39:05.307Z,18.49
2018-11-21T10:40:05.267Z,18.45
2018-11-21T10:41:05.211Z,18.50
2018-11-21T10:42:05.166Z,18.44
2018-11-21T10:43:05.139Z,18.49
2018-11-21T10:44:05.068Z,18.56
2018-11-21T10:45:05.021Z,18.50
2018-11-21T10:46:04.972Z,18.37
2018-11-21T10:47:04.925Z,18.37
2018-11-21T10:48:04.878Z,18.43
2018-11-21T10:49:04.830Z,18.47
2018-11-21T10:50:04.785Z,18.41
2018-11-21T10:51:04.737Z,18.47
2018-11-21T10:52:04.687Z,18.44
2018-11-21T10:53:04.652Z,18.55
2018-11-21T10:54:04.595Z,18.53
2018-11-21T10:55:04.544Z,18.60
2018-11-21T10:56:04.497Z,18.60
2018-11-21T10:57:04.461Z,18.62
2018-11-21T10:58:04.403Z,18.63
2018-11-21T10:59:04.357Z,18.70
2018-11-21T11:00:04.312Z,18.71
2018-11-21T11:01:04.259Z,18.83
2018-11-21T11:02:04.219Z,18.96
2018-11-21T11:03:04.169Z,19.12
2018-11-21T11:04:04.116Z,19.11
2018-11-21T11:05:04.070Z,19.16
2018-11-21T11:06:04.024Z,19.11
2018-11-21T11:07:03.974Z,19.12
2018-11-21T11:08:03.929Z,19.15
2018-11-21T11:09:03.882Z,19.26
2018-11-21T11:10:03.837Z,19.31
2018-11-21T11:11:03.786Z,19.45
2018-11-21T11:12:03.739Z,19.52
2018-11-21T11:13:03.700Z,19.52
2018-11-21T11:14:03.686Z,19.47
2018-11-21T11:15:03.596Z,19.51
2018-11-21T11:16:03.550Z,19.56
2018-11-21T11:17:03.511Z,19.49
2018-11-21T11:18:03.455Z,19.52
2018-11-21T11:19:03.409Z,19.39
2018-11-21T11:20:04.212Z,19.29
2018-11-21T11:21:03.314Z,19.37
2018-11-21T11:22:03.266Z,19.33
2018-11-21T11:23:03.223Z,19.37
2018-11-21T11:24:03.174Z,19.31
2018-11-21T11:25:03.152Z,19.29
2018-11-21T11:26:03.081Z,19.30
2018-11-21T11:27:03.032Z,19.12
2018-11-21T11:28:02.983Z,19.08
2018-11-21T11:29:02.936Z,19.08
2018-11-21T11:30:02.890Z,19.04
2018-11-21T11:31:02.842Z,19.07
2018-11-21T11:32:02.797Z,19.11
2018-11-21T11:33:02.747Z,19.02
2018-11-21T11:34:02.699Z,19.22
2018-11-21T11:35:02.653Z,19.36
2018-11-21T11:36:02.615Z,19.30
2018-11-21T11:37:02.556Z,19.39
2018-11-21T11:38:02.510Z,19.41
2018-11-21T11:39:02.463Z,19.41
2018-11-21T11:40:02.424Z,19.49
2018-11-21T11:41:02.374Z,19.47
2018-11-21T11:42:02.329Z,19.44
2018-11-21T11:43:02.289Z,19.41
2018-11-21T11:44:02.230Z,19.48
2018-11-21T11:45:02.181Z,19.55
2018-11-21T11:46:02.134Z,19.63
2018-11-21T11:47:02.096Z,19.63
2018-11-21T11:48:02.046Z,19.76
2018-11-21T11:49:01.992Z,19.73
2018-11-21T11:50:01.951Z,19.67
2018-11-21T11:51:01.904Z,19.74
2018-11-21T11:52:01.853Z,19.82
2018-11-21T11:53:01.802Z,19.79
2018-11-21T11:54:01.756Z,19.81
2018-11-21T11:55:01.716Z,19.82
2018-11-21T11:56:01.668Z,19.79
2018-11-21T11:57:01.617Z,19.82
2018-11-21T11:58:01.568Z,19.82
2018-11-21T11:59:01.524Z,19.86
2018-11-21T12:00:01.479Z,19.81
2018-11-21T12:01:01.428Z,19.82
2018-11-21T12:02:01.386Z,19.85
2018-11-21T12:03:01.336Z,19.79
2018-11-21T12:04:01.286Z,19.92
2018-11-21T12:05:01.245Z,19.86
2018-11-21T12:06:01.193Z,19.88
2018-11-21T12:07:01.147Z,19.88
2018-11-21T12:08:01.098Z,19.84
2018-11-21T12:09:01.051Z,19.86
2018-11-21T12:10:01.008Z,19.84
2018-11-21T12:11:00.959Z,19.81
2018-11-21T12:12:04.788Z,19.73
2018-11-21T12:13:00.865Z,19.73
2018-11-21T12:14:00.815Z,19.69
2018-11-21T12:15:00.771Z,19.73
2018-11-21T12:16:00.721Z,19.84
2018-11-21T12:17:00.675Z,19.82
2018-11-21T12:18:00.627Z,19.86
2018-11-21T12:19:00.581Z,20.02
2018-11-21T12:20:00.534Z,19.96
2018-11-21T12:21:00.492Z,20.03
2018-11-21T12:22:00.438Z,19.96
2018-11-21T12:23:00.393Z,20.00
2018-11-21T12:24:00.351Z,20.10
2018-11-21T12:25:00.302Z,20.03
2018-11-21T12:26:00.252Z,19.92
2018-11-21T12:27:00.208Z,19.92
2018-11-21T12:28:00.160Z,19.94
2018-11-21T12:29:00.112Z,19.89
2018-11-21T12:30:00.068Z,19.85
2018-11-21T12:31:00.039Z,19.91
2018-11-21T12:31:59.970Z,19.88
2018-11-21T12:32:59.924Z,19.86
2018-11-21T12:33:59.891Z,19.89
2018-11-21T12:34:59.829Z,19.91
2018-11-21T12:35:59.784Z,19.91
2018-11-21T12:36:59.737Z,19.99
2018-11-21T12:37:59.692Z,19.94
2018-11-21T12:38:59.653Z,19.82
2018-11-21T12:39:59.596Z,19.94
2018-11-21T12:40:59.548Z,19.94
2018-11-21T12:41:59.501Z,19.82
2018-11-21T12:42:59.498Z,19.96
2018-11-21T12:43:59.407Z,19.92
2018-11-21T12:45:03.567Z,19.89
2018-11-21T12:45:59.311Z,19.86
2018-11-21T12:46:59.265Z,19.94
2018-11-21T12:47:59.241Z,19.86
2018-11-21T12:48:59.534Z,19.99
2018-11-21T12:49:59.126Z,19.86
2018-11-21T12:50:59.082Z,19.95
2018-11-21T12:52:00.248Z,20.11